Time;durP1;ratioP1;P1;durP2;ratioP2;P2;SDS_P1;SDS_P2;PMS_P1;PMS_P2;Temp;Humidity;BMP_temperature;BMP_pressure;BME280_temperature;BME280_humidity;BME280_pressure;Samples;Min_cycle;Max_cycle;Signal;HPM_P1;HPM_P2
2024/03/01 05:05:22;;;;;;;0.30;0.30;;;4.90;99.90;;;;;;6127654;23;20490;-69
2024/03/01 05:07:48;;;;;;;0.30;0.30;;;5.00;99.90;;;;;;4953338;29;20607;-67
2024/03/01 05:10:21;;;;;;;0.30;0.30;;;4.90;99.90;;;;;;4938762;29;20270;-67
2024/03/01 05:12:47;;;;;;;0.40;0.40;;;4.80;99.90;;;;;;4955662;29;20184;-69
2024/03/01 05:15:15;;;;;;;0.40;0.40;;;4.90;99.90;;;;;;4954060;29;20535;-68
2024/03/01 05:17:42;;;;;;;0.65;0.65;;;4.80;99.90;;;;;;4936490;29;20421;-67
2024/03/01 05:20:12;;;;;;;0.30;0.30;;;4.90;99.90;;;;;;4936785;29;20579;-68
2024/03/01 05:22:39;;;;;;;0.40;0.40;;;4.90;99.90;;;;;;4936825;29;20196;-68
2024/03/01 05:25:14;;;;;;;0.30;0.30;;;5.00;99.90;;;;;;4935873;29;20646;-67
2024/03/01 05:27:48;;;;;;;0.40;0.40;;;5.00;99.90;;;;;;4919482;29;20204;-67
2024/03/01 05:30:18;;;;;;;0.40;0.40;;;5.10;99.90;;;;;;4936176;29;20173;-68
2024/03/01 05:32:44;;;;;;;1.65;1.60;;;5.10;99.90;;;;;;4936551;29;20195;-68
2024/03/01 05:35:12;;;;;;;0.45;0.45;;;5.10;99.90;;;;;;4935482;29;20169;-67
2024/03/01 05:37:37;;;;;;;0.32;0.32;;;5.10;99.90;;;;;;4935610;29;20169;-68
2024/03/01 05:40:04;;;;;;;0.30;0.30;;;5.10;99.90;;;;;;4919284;29;20187;-67
2024/03/01 05:42:30;;;;;;;0.57;0.57;;;5.10;99.90;;;;;;4936013;29;20179;-68
2024/03/01 05:44:56;;;;;;;0.60;0.60;;;5.00;99.90;;;;;;4918899;29;20270;-67
2024/03/01 05:47:21;;;;;;;0.50;0.50;;;5.00;99.90;;;;;;4935683;29;20615;-67
2024/03/01 05:49:47;;;;;;;0.50;0.50;;;5.00;99.90;;;;;;4936188;29;20173;-68
2024/03/01 05:52:13;;;;;;;0.47;0.47;;;5.00;99.90;;;;;;4936086;29;20219;-68
2024/03/01 05:54:38;;;;;;;0.47;0.47;;;5.00;99.90;;;;;;4935853;29;20206;-67
2024/03/01 05:57:04;;;;;;;0.40;0.40;;;5.00;99.90;;;;;;4919209;29;20255;-67
2024/03/01 05:59:30;;;;;;;0.30;0.30;;;4.90;99.90;;;;;;4936488;29;20204;-67
2024/03/01 06:01:55;;;;;;;0.60;0.60;;;4.90;99.90;;;;;;4935652;29;20223;-67
2024/03/01 06:04:21;;;;;;;0.40;0.40;;;4.90;99.90;;;;;;4918885;29;20656;-68
2024/03/01 06:06:46;;;;;;;0.40;0.40;;;4.90;99.90;;;;;;4935375;29;20260;-66
2024/03/01 06:09:12;;;;;;;0.40;0.40;;;4.90;99.90;;;;;;4936217;29;20638;-69
2024/03/01 06:11:38;;;;;;;0.47;0.47;;;4.90;99.90;;;;;;4936290;29;20261;-68
2024/03/01 06:14:03;;;;;;;0.50;0.50;;;4.90;99.90;;;;;;4934642;29;20204;-67
2024/03/01 06:16:29;;;;;;;0.40;0.40;;;4.90;99.90;;;;;;4935500;29;20421;-67
2024/03/01 06:18:56;;;;;;;0.30;0.30;;;4.90;99.90;;;;;;4935407;29;20188;-67
2024/03/01 06:21:22;;;;;;;0.35;0.35;;;4.90;99.90;;;;;;4935533;29;20189;-68
2024/03/01 06:23:48;;;;;;;0.65;0.65;;;4.90;99.90;;;;;;4935440;29;20175;-67
2024/03/01 06:26:14;;;;;;;0.30;0.30;;;4.90;99.90;;;;;;4940588;29;20212;-67
2024/03/01 06:28:42;;;;;;;0.45;0.45;;;5.00;99.90;;;;;;4944892;29;20424;-67
2024/03/01 06:31:08;;;;;;;0.40;0.40;;;5.00;99.90;;;;;;4954654;29;20196;-68
2024/03/01 06:33:34;;;;;;;0.40;0.40;;;5.00;99.90;;;;;;4923548;29;20614;-70
2024/03/01 06:36:00;;;;;;;0.30;0.30;;;5.10;99.90;;;;;;4947922;29;20199;-67
2024/03/01 06:38:26;;;;;;;0.30;0.30;;;5.10;99.90;;;;;;4954680;29;20179;-64
2024/03/01 06:40:51;;;;;;;0.40;0.40;;;5.20;99.90;;;;;;4948566;29;20253;-63
2024/03/01 06:43:17;;;;;;;0.30;0.30;;;5.20;99.90;;;;;;4935084;29;20714;-62
2024/03/01 06:45:42;;;;;;;0.40;0.40;;;5.30;99.90;;;;;;4935291;29;20232;-65
2024/03/01 06:48:08;;;;;;;0.50;0.50;;;5.30;99.90;;;;;;4935093;29;20180;-64
2024/03/01 06:50:35;;;;;;;0.30;0.30;;;5.40;99.90;;;;;;4933941;29;20228;-63
2024/03/01 06:53:00;;;;;;;0.60;0.60;;;5.50;99.90;;;;;;4935013;29;20172;-66
2024/03/01 06:55:26;;;;;;;0.30;0.30;;;5.50;99.90;;;;;;4940654;29;20613;-64
2024/03/01 06:57:52;;;;;;;0.50;0.50;;;5.60;99.90;;;;;;4918231;29;20217;-64
2024/03/01 07:00:17;;;;;;;0.50;0.50;;;5.70;99.90;;;;;;4934555;29;20174;-64
2024/03/01 07:02:43;;;;;;;0.40;0.40;;;5.80;99.90;;;;;;4935422;29;20266;-63
2024/03/01 07:05:09;;;;;;;0.40;0.40;;;5.90;99.90;;;;;;4934990;29;20624;-64
2024/03/01 07:07:36;;;;;;;0.65;0.65;;;5.90;99.90;;;;;;4935249;29;20196;-64
2024/03/01 07:10:02;;;;;;;0.45;0.45;;;6.00;99.90;;;;;;4935424;29;20224;-64
2024/03/01 07:12:28;;;;;;;0.60;0.60;;;6.00;99.90;;;;;;4935705;29;20193;-63
2024/03/01 07:14:53;;;;;;;0.30;0.30;;;6.10;99.90;;;;;;4936990;29;20244;-64
2024/03/01 07:17:19;;;;;;;0.40;0.40;;;6.10;99.90;;;;;;4938928;29;20271;-64
2024/03/01 07:19:44;;;;;;;0.30;0.30;;;6.20;99.90;;;;;;4939105;29;20177;-64
2024/03/01 07:22:10;;;;;;;0.70;0.70;;;6.20;99.90;;;;;;4939394;29;20180;-64
2024/03/01 07:24:38;;;;;;;0.63;0.63;;;6.10;99.90;;;;;;4957129;29;20191;-64
2024/03/01 07:27:04;;;;;;;0.45;0.45;;;6.20;99.90;;;;;;4958045;29;20288;-64
2024/03/01 07:29:30;;;;;;;0.30;0.30;;;6.20;99.90;;;;;;4958155;29;20252;-64
2024/03/01 07:31:55;;;;;;;0.30;0.30;;;6.30;99.90;;;;;;4940853;29;20187;-64
2024/03/01 07:34:21;;;;;;;0.60;0.60;;;6.40;99.90;;;;;;4957860;29;20234;-63
2024/03/01 07:36:47;;;;;;;1.95;0.75;;;6.50;99.90;;;;;;4957815;29;20288;-63
2024/03/01 07:39:12;;;;;;;0.40;0.40;;;6.50;99.90;;;;;;4958094;29;20200;-64
2024/03/01 07:41:39;;;;;;;0.30;0.30;;;6.60;99.90;;;;;;4957845;29;20204;-64
2024/03/01 07:44:06;;;;;;;0.30;0.30;;;6.70;99.90;;;;;;4940827;29;20212;-64
2024/03/01 07:46:32;;;;;;;0.50;0.50;;;6.90;99.90;;;;;;4957368;29;20195;-65
2024/03/01 07:48:57;;;;;;;0.50;0.50;;;7.00;99.90;;;;;;4959874;29;20169;-64
2024/03/01 07:51:23;;;;;;;0.33;0.33;;;7.10;99.90;;;;;;4966504;29;20180;-64
2024/03/01 07:53:48;;;;;;;0.40;0.40;;;7.20;99.90;;;;;;4966798;29;20215;-63
2024/03/01 07:56:14;;;;;;;0.30;0.30;;;7.40;99.90;;;;;;4965004;29;20180;-64
2024/03/01 07:58:41;;;;;;;0.40;0.40;;;7.50;99.90;;;;;;4965298;29;20169;-66
2024/03/01 08:01:07;;;;;;;0.30;0.30;;;7.60;99.90;;;;;;4959920;29;20413;-64
2024/03/01 08:03:34;;;;;;;0.60;0.60;;;7.60;99.90;;;;;;4943010;29;20184;-63
2024/03/01 08:06:00;;;;;;;0.30;0.30;;;7.80;99.90;;;;;;4938655;29;20196;-64
2024/03/01 08:08:44;;;;;;;0.30;0.30;;;7.80;99.90;;;;;;4938538;29;20177;-64
2024/03/01 08:11:10;;;;;;;0.30;0.30;;;7.90;99.90;;;;;;4938236;29;20170;-64
2024/03/01 08:13:37;;;;;;;0.30;0.30;;;8.00;99.90;;;;;;4921710;29;20668;-64
2024/03/01 08:16:10;;;;;;;0.30;0.30;;;8.00;99.90;;;;;;4940923;29;20199;-64
2024/03/01 08:18:42;;;;;;;0.65;0.65;;;8.10;99.90;;;;;;4943103;29;20174;-63
2024/03/01 08:21:15;;;;;;;0.40;0.40;;;8.20;99.90;;;;;;4926118;29;20180;-64
2024/03/01 08:23:42;;;;;;;0.50;0.50;;;8.20;99.90;;;;;;4942342;29;20166;-63
2024/03/01 08:26:21;;;;;;;1.77;1.67;;;8.20;99.90;;;;;;4922445;29;20228;-63
2024/03/01 08:28:46;;;;;;;0.70;0.70;;;8.30;99.90;;;;;;4938687;29;20260;-63
2024/03/01 08:31:19;;;;;;;0.40;0.40;;;8.30;99.90;;;;;;4938186;29;20202;-63
2024/03/01 08:33:45;;;;;;;0.30;0.30;;;8.30;99.90;;;;;;4937624;29;20252;-63
2024/03/01 08:36:10;;;;;;;0.40;0.40;;;8.30;99.90;;;;;;4937236;29;20201;-63
2024/03/01 08:38:39;;;;;;;0.33;0.33;;;8.30;99.90;;;;;;4920451;29;20216;-65
2024/03/01 08:41:05;;;;;;;0.30;0.30;;;8.50;99.90;;;;;;4938095;29;20262;-63
2024/03/01 08:43:31;;;;;;;0.30;0.30;;;8.50;99.90;;;;;;4938235;29;20253;-64
2024/03/01 08:46:01;;;;;;;0.40;0.40;;;8.50;99.90;;;;;;4937425;29;20193;-64
2024/03/01 08:48:33;;;;;;;0.40;0.40;;;8.60;99.90;;;;;;4937398;29;20173;-65
2024/03/01 08:51:00;;;;;;;0.45;0.45;;;8.70;99.90;;;;;;4937282;29;20197;-65
2024/03/01 08:53:57;;;;;;;0.50;0.50;;;8.80;99.90;;;;;;4937106;29;20201;-62
2024/03/01 08:56:36;;;;;;;0.30;0.30;;;8.70;99.90;;;;;;4936895;29;20200;-64
2024/03/01 08:59:28;;;;;;;0.30;0.30;;;8.70;99.90;;;;;;4937228;29;20173;-65
2024/03/01 09:01:54;;;;;;;0.40;0.40;;;8.70;99.90;;;;;;4936904;29;20625;-65
2024/03/01 09:04:26;;;;;;;0.30;0.30;;;8.70;99.90;;;;;;4936856;29;20173;-64
2024/03/01 09:07:13;;;;;;;0.30;0.30;;;8.60;99.90;;;;;;4936671;29;20453;-65
2024/03/01 09:09:39;;;;;;;0.45;0.45;;;8.70;99.90;;;;;;4936891;29;20174;-63
2024/03/01 09:12:20;;;;;;;0.30;0.30;;;8.70;99.90;;;;;;4936932;29;20173;-64
2024/03/01 09:14:45;;;;;;;0.30;0.30;;;8.70;99.90;;;;;;4936509;29;20277;-63
2024/03/01 09:17:13;;;;;;;0.30;0.30;;;8.70;99.90;;;;;;4936981;29;20308;-64
2024/03/01 09:19:42;;;;;;;0.30;0.30;;;8.70;99.90;;;;;;4936750;29;20248;-66
2024/03/01 09:22:10;;;;;;;0.30;0.30;;;8.70;99.90;;;;;;4936882;29;20233;-66
2024/03/01 09:24:38;;;;;;;0.30;0.20;;;8.70;99.90;;;;;;4936539;29;20175;-64
2024/03/01 09:27:35;;;;;;;0.40;0.40;;;8.70;99.90;;;;;;4936682;29;20220;-64
2024/03/01 09:30:09;;;;;;;0.40;0.40;;;8.70;99.90;;;;;;4924681;29;20181;-65
2024/03/01 09:32:35;;;;;;;0.50;0.50;;;8.70;99.90;;;;;;4936815;29;20173;-63
2024/03/01 09:35:03;;;;;;;0.40;0.40;;;8.80;99.90;;;;;;4936132;29;20209;-64
2024/03/01 09:37:29;;;;;;;0.70;0.70;;;8.70;99.90;;;;;;4935906;29;20189;-62
2024/03/01 09:39:55;;;;;;;0.40;0.40;;;8.70;99.90;;;;;;4936244;29;20248;-64
2024/03/01 09:42:47;;;;;;;0.40;0.40;;;8.70;99.90;;;;;;4936280;29;20442;-64
2024/03/01 09:45:46;;;;;;;0.38;0.38;;;8.70;99.90;;;;;;4918831;29;20280;-63
2024/03/01 09:48:42;;;;;;;1.40;1.13;;;8.60;99.90;;;;;;4936511;29;20174;-65
2024/03/01 09:51:26;;;;;;;0.30;0.30;;;8.60;99.90;;;;;;4922577;29;20213;-63
2024/03/01 09:54:16;;;;;;;0.30;0.28;;;8.60;99.90;;;;;;4927246;29;20200;-63
2024/03/01 09:57:09;;;;;;;0.32;0.32;;;8.60;99.90;;;;;;4945320;29;20181;-63
2024/03/01 10:00:19;;;;;;;0.30;0.30;;;8.70;99.90;;;;;;4927846;29;20173;-63
2024/03/01 10:03:03;;;;;;;0.52;0.52;;;8.80;99.90;;;;;;4926349;29;20635;-63
2024/03/01 10:06:05;;;;;;;0.40;0.40;;;8.90;99.90;;;;;;4935976;29;20197;-64
2024/03/01 10:09:07;;;;;;;0.30;0.30;;;9.00;99.90;;;;;;4938025;29;20192;-65
2024/03/01 10:12:12;;;;;;;0.30;0.30;;;9.10;99.90;;;;;;4938856;29;20583;-65
2024/03/01 10:15:00;;;;;;;0.30;0.30;;;9.30;99.90;;;;;;4896146;29;20231;-63
2024/03/01 10:17:51;;;;;;;0.65;0.65;;;9.40;99.90;;;;;;4896341;29;20202;-65
2024/03/01 10:20:37;;;;;;;0.30;0.30;;;9.50;99.90;;;;;;4927930;29;20364;-65
2024/03/01 10:23:34;;;;;;;0.30;0.30;;;9.50;99.90;;;;;;4935977;29;20169;-64
2024/03/01 10:26:40;;;;;;;0.80;0.80;;;9.50;99.90;;;;;;4935570;29;20604;-66
2024/03/01 10:29:20;;;;;;;0.30;0.30;;;9.50;99.90;;;;;;4895888;29;20265;-64
2024/03/01 10:31:52;;;;;;;0.30;0.30;;;9.60;99.90;;;;;;4896405;29;20275;-65
2024/03/01 10:34:38;;;;;;;0.32;0.32;;;9.60;99.90;;;;;;4895917;29;20242;-65
2024/03/01 10:37:33;;;;;;;3.00;1.85;;;9.70;99.90;;;;;;4895954;29;20192;-64
2024/03/01 10:40:07;;;;;;;1.73;1.67;;;9.80;99.90;;;;;;4880285;29;20271;-63
2024/03/01 10:42:36;;;;;;;0.30;0.30;;;9.70;99.90;;;;;;4895766;29;20208;-63
2024/03/01 10:45:18;;;;;;;0.38;0.38;;;9.70;99.90;;;;;;4895196;29;20585;-65
2024/03/01 10:47:45;;;;;;;0.30;0.30;;;9.80;99.90;;;;;;4895841;29;20214;-66
2024/03/01 10:50:20;;;;;;;0.52;0.52;;;9.80;99.90;;;;;;4898492;29;20211;-65
2024/03/01 10:53:09;;;;;;;0.38;0.38;;;9.70;99.90;;;;;;4883966;29;20281;-65
2024/03/01 10:55:39;;;;;;;0.30;0.30;;;9.70;99.90;;;;;;4899254;29;20569;-65
2024/03/01 10:58:34;;;;;;;0.30;0.30;;;9.60;99.90;;;;;;4899266;29;20584;-66
2024/03/01 11:01:42;;;;;;;0.38;0.38;;;9.60;99.90;;;;;;4938957;29;20193;-66
2024/03/01 11:04:25;;;;;;;0.30;0.30;;;9.60;99.90;;;;;;4880542;29;20187;-65
2024/03/01 11:07:20;;;;;;;0.30;0.30;;;9.60;99.90;;;;;;4917150;29;20230;-64
2024/03/01 11:10:02;;;;;;;0.57;0.57;;;9.60;99.90;;;;;;4911305;29;20226;-66
2024/03/01 11:12:59;;;;;;;0.55;0.55;;;9.50;99.90;;;;;;4920488;29;20178;-64
2024/03/01 11:15:27;;;;;;;0.30;0.30;;;9.50;99.90;;;;;;4919729;29;20209;-65
2024/03/01 11:17:54;;;;;;;0.30;0.30;;;9.60;99.90;;;;;;4920108;29;20175;-67
2024/03/01 11:20:30;;;;;;;0.30;0.30;;;9.70;99.90;;;;;;4920145;29;20182;-69
2024/03/01 11:23:20;;;;;;;0.30;0.30;;;9.70;99.90;;;;;;4920073;29;20198;-66
2024/03/01 11:26:16;;;;;;;0.40;0.40;;;9.70;99.90;;;;;;4919600;29;20190;-66
2024/03/01 11:28:47;;;;;;;0.30;0.30;;;9.70;99.90;;;;;;4919986;29;20170;-66
2024/03/01 11:31:21;;;;;;;0.30;0.30;;;9.60;99.90;;;;;;4920133;29;20170;-65
2024/03/01 11:33:48;;;;;;;2.42;2.22;;;9.70;99.90;;;;;;4919774;29;20215;-65
2024/03/01 11:36:13;;;;;;;0.52;0.52;;;9.80;99.90;;;;;;4919294;29;20278;-65
2024/03/01 11:39:10;;;;;;;0.33;0.33;;;10.10;99.90;;;;;;4919677;29;20315;-63
2024/03/01 11:42:07;;;;;;;0.30;0.30;;;10.30;99.90;;;;;;4919307;29;20259;-65
2024/03/01 11:44:40;;;;;;;0.30;0.30;;;10.50;99.90;;;;;;4918974;29;20498;-65
2024/03/01 11:47:42;;;;;;;0.30;0.30;;;10.70;99.90;;;;;;4919258;29;20428;-66
2024/03/01 11:50:33;;;;;;;0.43;0.40;;;10.90;99.90;;;;;;4902588;29;20423;-65
2024/03/01 11:53:19;;;;;;;0.30;0.30;;;10.90;99.90;;;;;;4919527;29;20399;-66
2024/03/01 11:56:43;;;;;;;0.30;0.30;;;11.00;99.90;;;;;;4919095;29;20519;-65
2024/03/01 11:59:42;;;;;;;0.30;0.30;;;11.10;99.90;;;;;;4879837;29;20457;-66
2024/03/01 12:02:28;;;;;;;0.40;0.40;;;11.10;99.90;;;;;;4933143;29;20406;-64
2024/03/01 12:05:22;;;;;;;0.70;0.70;;;11.20;99.90;;;;;;4918907;29;20179;-63
2024/03/01 12:08:07;;;;;;;1.90;0.57;;;11.20;99.90;;;;;;4918939;29;20196;-64
2024/03/01 12:10:49;;;;;;;0.60;0.60;;;11.30;99.90;;;;;;4918705;29;20929;-69
2024/03/01 12:13:16;;;;;;;0.30;0.30;;;11.40;99.90;;;;;;4918886;29;20464;-67
2024/03/01 12:16:20;;;;;;;0.33;0.33;;;11.50;99.90;;;;;;4918415;29;20807;-68
2024/03/01 12:19:05;;;;;;;0.30;0.30;;;11.40;99.90;;;;;;4897770;29;20917;-68
2024/03/01 12:21:55;;;;;;;0.30;0.30;;;11.70;99.90;;;;;;4898343;29;20409;-69
2024/03/01 12:24:27;;;;;;;0.30;0.30;;;11.70;99.90;;;;;;4897779;29;20425;-66
2024/03/01 12:27:08;;;;;;;0.30;0.30;;;11.80;99.90;;;;;;4897762;29;20424;-67
2024/03/01 12:29:57;;;;;;;1.17;0.73;;;12.00;99.90;;;;;;4897601;29;20389;-70
2024/03/01 12:32:39;;;;;;;0.30;0.30;;;12.30;99.90;;;;;;4897575;29;20393;-66
2024/03/01 12:35:13;;;;;;;0.70;0.70;;;12.60;99.90;;;;;;4897148;29;20441;-67
2024/03/01 12:38:08;;;;;;;0.30;0.30;;;12.90;99.90;;;;;;4897898;29;20419;-66
2024/03/01 12:40:46;;;;;;;0.30;0.30;;;13.20;99.90;;;;;;4897578;29;20433;-65
2024/03/01 12:43:40;;;;;;;0.30;0.20;;;13.50;99.90;;;;;;4897751;29;20421;-66
2024/03/01 12:46:22;;;;;;;0.30;0.30;;;13.70;99.90;;;;;;4897227;29;20479;-67
2024/03/01 12:48:56;;;;;;;0.43;0.43;;;13.50;99.90;;;;;;4901837;29;20397;-67
2024/03/01 12:51:28;;;;;;;0.40;0.40;;;13.50;99.90;;;;;;4918547;29;20404;-68
2024/03/01 12:54:07;;;;;;;0.50;0.50;;;13.40;99.90;;;;;;4918172;29;20522;-67
2024/03/01 12:56:53;;;;;;;0.30;0.30;;;13.20;99.90;;;;;;4900338;29;20440;-64
2024/03/01 12:59:37;;;;;;;0.30;0.20;;;13.20;99.90;;;;;;4917940;29;20410;-62
2024/03/01 13:02:42;;;;;;;0.30;0.30;;;13.30;99.90;;;;;;4930354;29;20413;-62
2024/03/01 13:05:27;;;;;;;0.30;0.30;;;13.40;99.90;;;;;;4955659;29;20456;-63
2024/03/01 13:07:55;;;;;;;0.30;0.30;;;13.40;99.90;;;;;;4956212;29;20503;-62
2024/03/01 13:10:25;;;;;;;0.40;0.40;;;13.40;99.90;;;;;;4956245;29;20440;-62
2024/03/01 13:12:57;;;;;;;0.30;0.30;;;13.30;99.90;;;;;;4955439;28;20487;-63
2024/03/01 13:15:23;;;;;;;0.30;0.30;;;13.20;99.90;;;;;;4955630;29;20412;-62
2024/03/01 13:18:07;;;;;;;0.30;0.20;;;13.20;99.90;;;;;;4954561;29;20387;-62
2024/03/01 13:20:54;;;;;;;0.30;0.30;;;13.20;99.90;;;;;;4954057;29;20856;-63
2024/03/01 13:23:51;;;;;;;0.30;0.20;;;13.20;99.90;;;;;;4953879;29;20471;-64
2024/03/01 13:26:17;;;;;;;0.67;0.67;;;13.20;99.90;;;;;;4953395;29;20440;-62
2024/03/01 13:28:57;;;;;;;0.30;0.30;;;13.20;99.90;;;;;;4953748;29;20433;-64
2024/03/01 13:31:27;;;;;;;0.30;0.30;;;13.20;99.90;;;;;;4953785;29;20231;-64
2024/03/01 13:33:57;;;;;;;0.30;0.30;;;13.00;99.90;;;;;;4955730;29;20455;-62
2024/03/01 13:36:28;;;;;;;0.30;0.30;;;12.80;99.90;;;;;;4921759;29;20524;-63
2024/03/01 13:39:14;;;;;;;0.50;0.50;;;12.50;99.90;;;;;;4955977;29;20487;-62
2024/03/01 13:41:51;;;;;;;0.30;0.20;;;12.40;99.90;;;;;;4955958;29;20416;-63
2024/03/01 13:44:26;;;;;;;2.53;1.23;;;12.10;99.90;;;;;;4955443;29;20423;-63
2024/03/01 13:47:03;;;;;;;0.30;0.30;;;11.80;99.90;;;;;;4938091;29;20420;-63
2024/03/01 13:49:37;;;;;;;0.30;0.30;;;11.60;99.90;;;;;;4955699;29;20427;-63
2024/03/01 13:52:07;;;;;;;0.30;0.30;;;11.30;99.90;;;;;;4938439;29;20783;-63
2024/03/01 13:54:35;;;;;;;0.30;0.30;;;11.10;99.90;;;;;;4955543;29;20497;-61
2024/03/01 13:57:05;;;;;;;0.50;0.50;;;10.90;99.90;;;;;;4955550;29;20427;-62
2024/03/01 13:59:31;;;;;;;0.30;0.30;;;10.80;99.90;;;;;;4955654;29;20407;-63
2024/03/01 14:01:57;;;;;;;0.37;0.37;;;10.60;99.90;;;;;;4950126;29;20415;-63
2024/03/01 14:04:24;;;;;;;0.30;0.30;;;10.60;99.90;;;;;;4936353;29;20203;-63
2024/03/01 14:06:50;;;;;;;0.50;0.50;;;10.60;99.90;;;;;;4935777;29;20455;-62
2024/03/01 14:09:19;;;;;;;0.33;0.33;;;10.60;99.90;;;;;;4936009;29;20430;-63
2024/03/01 14:11:44;;;;;;;0.30;0.30;;;10.70;99.90;;;;;;4936056;29;20438;-62
2024/03/01 14:14:10;;;;;;;1.17;0.60;;;10.70;99.90;;;;;;4919102;29;20565;-63
2024/03/01 14:16:37;;;;;;;0.50;0.50;;;10.80;99.90;;;;;;4935823;29;20304;-63
2024/03/01 14:19:02;;;;;;;0.40;0.40;;;10.80;99.90;;;;;;4936587;29;20446;-62
2024/03/01 14:21:30;;;;;;;0.40;0.40;;;10.90;99.90;;;;;;4937166;29;20424;-64
2024/03/01 14:23:59;;;;;;;0.70;0.70;;;10.90;99.90;;;;;;4936109;29;20267;-63
2024/03/01 14:26:25;;;;;;;0.30;0.30;;;10.90;99.90;;;;;;4935862;29;20537;-63
2024/03/01 14:28:51;;;;;;;1.27;1.17;;;10.90;99.90;;;;;;4935935;29;20428;-63
2024/03/01 14:31:17;;;;;;;0.40;0.40;;;10.80;99.90;;;;;;4936035;29;20426;-63
2024/03/01 14:33:57;;;;;;;0.40;0.40;;;10.80;99.90;;;;;;4935914;29;20467;-63
2024/03/01 14:36:23;;;;;;;0.30;0.20;;;10.70;99.90;;;;;;4935296;29;20478;-64
2024/03/01 14:38:54;;;;;;;0.30;0.30;;;10.70;99.90;;;;;;4935987;29;20775;-63
2024/03/01 14:41:20;;;;;;;0.40;0.40;;;10.70;99.90;;;;;;4935880;29;20601;-63
2024/03/01 14:43:48;;;;;;;0.30;0.30;;;10.70;99.90;;;;;;4935983;29;20510;-63
2024/03/01 14:46:37;;;;;;;0.30;0.30;;;10.60;99.90;;;;;;4935223;29;20201;-63
2024/03/01 14:49:10;;;;;;;0.30;0.30;;;10.60;99.90;;;;;;4935625;29;20443;-64
2024/03/01 14:51:36;;;;;;;0.30;0.30;;;10.70;99.90;;;;;;4935986;29;20411;-64
2024/03/01 14:54:02;;;;;;;0.50;0.50;;;10.80;99.90;;;;;;4936292;29;20545;-64
2024/03/01 14:56:27;;;;;;;0.37;0.37;;;10.80;99.90;;;;;;4923661;29;20669;-71
2024/03/01 14:58:54;;;;;;;0.57;0.43;;;10.80;99.90;;;;;;4953846;29;20401;-65
2024/03/01 15:01:21;;;;;;;0.30;0.30;;;10.80;99.90;;;;;;4953397;29;20173;-63
2024/03/01 15:03:48;;;;;;;0.30;0.27;;;10.80;99.90;;;;;;4937815;29;20419;-63
2024/03/01 15:06:14;;;;;;;0.50;0.50;;;10.90;99.90;;;;;;4954419;29;20527;-63
2024/03/01 15:08:41;;;;;;;0.30;0.30;;;10.90;99.90;;;;;;4953784;28;20415;-63
2024/03/01 15:11:07;;;;;;;0.30;0.30;;;10.90;99.90;;;;;;4954776;29;20840;-62
2024/03/01 15:13:34;;;;;;;0.30;0.30;;;10.90;99.90;;;;;;4954735;29;20511;-62
2024/03/01 15:16:01;;;;;;;0.30;0.30;;;10.80;99.90;;;;;;4954403;29;20409;-62
2024/03/01 15:18:29;;;;;;;0.50;0.50;;;10.90;99.90;;;;;;4954795;29;20420;-62
2024/03/01 15:20:56;;;;;;;0.43;0.43;;;10.90;99.90;;;;;;4954465;29;20454;-64
2024/03/01 15:23:22;;;;;;;0.30;0.30;;;11.00;99.90;;;;;;4937342;29;20547;-63
2024/03/01 15:25:48;;;;;;;0.30;0.30;;;10.90;99.90;;;;;;4954184;29;20435;-63
2024/03/01 15:28:14;;;;;;;0.30;0.30;;;10.90;99.90;;;;;;4954475;29;20423;-62
2024/03/01 15:30:43;;;;;;;0.67;0.50;;;10.90;99.90;;;;;;4954081;29;20426;-62
2024/03/01 15:33:09;;;;;;;0.30;0.30;;;10.90;99.90;;;;;;4954422;29;20414;-63
2024/03/01 15:35:35;;;;;;;0.30;0.20;;;10.90;99.90;;;;;;4955685;28;20433;-62
2024/03/01 15:38:05;;;;;;;0.40;0.40;;;11.00;99.90;;;;;;4957840;29;20167;-62
2024/03/01 15:40:37;;;;;;;2.77;0.90;;;11.10;99.90;;;;;;4957863;29;20806;-62
2024/03/01 15:43:03;;;;;;;0.67;0.67;;;11.20;99.90;;;;;;4957919;29;20754;-63
2024/03/01 15:45:29;;;;;;;0.30;0.30;;;11.20;99.90;;;;;;4957564;29;20410;-62
2024/03/01 15:47:54;;;;;;;0.30;0.30;;;11.20;99.90;;;;;;4957672;29;20412;-63
2024/03/01 15:50:20;;;;;;;0.30;0.27;;;11.20;99.90;;;;;;4957873;29;20547;-62
2024/03/01 15:52:54;;;;;;;0.30;0.30;;;11.00;99.90;;;;;;4957485;29;20190;-62
2024/03/01 15:55:20;;;;;;;0.60;0.60;;;11.00;99.90;;;;;;4957032;29;20552;-63
2024/03/01 15:57:46;;;;;;;0.40;0.40;;;11.10;99.90;;;;;;4957356;29;20407;-61
2024/03/01 16:00:17;;;;;;;0.70;0.50;;;11.00;99.90;;;;;;4957681;29;20935;-63
2024/03/01 16:02:43;;;;;;;0.40;0.40;;;11.00;99.90;;;;;;4946143;29;20173;-63
2024/03/01 16:05:09;;;;;;;0.30;0.30;;;11.00;99.90;;;;;;4937735;29;20412;-62
2024/03/01 16:07:42;;;;;;;0.43;0.43;;;11.00;99.90;;;;;;4938018;29;20611;-63
2024/03/01 16:10:13;;;;;;;0.30;0.20;;;11.00;99.90;;;;;;4920871;29;20434;-63
2024/03/01 16:12:50;;;;;;;0.30;0.30;;;11.00;99.90;;;;;;4938304;29;20784;-63
2024/03/01 16:15:17;;;;;;;0.30;0.30;;;10.90;99.90;;;;;;4937615;29;20458;-62
2024/03/01 16:17:43;;;;;;;0.30;0.30;;;10.90;99.90;;;;;;4938042;29;20421;-62
2024/03/01 16:20:09;;;;;;;0.40;0.40;;;10.90;99.90;;;;;;4937847;29;20408;-63
2024/03/01 16:22:36;;;;;;;0.30;0.30;;;10.90;99.90;;;;;;4937949;29;20749;-66
2024/03/01 16:25:05;;;;;;;0.83;0.80;;;10.90;99.90;;;;;;4937447;29;20777;-62
2024/03/01 16:27:33;;;;;;;0.30;0.30;;;10.80;99.90;;;;;;4938184;29;20419;-63
2024/03/01 16:30:00;;;;;;;1.67;1.30;;;10.80;99.90;;;;;;4937721;29;20402;-62
2024/03/01 16:32:37;;;;;;;0.40;0.40;;;10.70;99.90;;;;;;4937679;29;20466;-62
2024/03/01 16:35:25;;;;;;;0.30;0.20;;;10.60;99.90;;;;;;4937308;29;20546;-62
2024/03/01 16:37:52;;;;;;;0.60;0.60;;;10.60;99.90;;;;;;4920342;29;20522;-61
2024/03/01 16:40:19;;;;;;;0.32;0.32;;;10.40;99.90;;;;;;4937645;29;20406;-63
2024/03/01 16:42:46;;;;;;;0.30;0.30;;;10.40;99.90;;;;;;4937561;29;20183;-62
2024/03/01 16:45:32;;;;;;;0.30;0.30;;;10.40;99.90;;;;;;4937138;29;20198;-63
2024/03/01 16:47:59;;;;;;;0.30;0.30;;;10.30;99.90;;;;;;4919458;29;20723;-62
2024/03/01 16:50:25;;;;;;;0.32;0.32;;;10.30;99.90;;;;;;4937631;29;20193;-62
2024/03/01 16:52:52;;;;;;;0.50;0.50;;;10.30;99.90;;;;;;4920125;29;20640;-63
2024/03/01 16:55:36;;;;;;;0.30;0.30;;;10.30;99.90;;;;;;4936862;29;20817;-63
2024/03/01 16:58:02;;;;;;;0.30;0.30;;;10.30;99.90;;;;;;4937347;29;20180;-63
2024/03/01 17:00:32;;;;;;;0.30;0.30;;;10.20;99.90;;;;;;4936988;29;20409;-63
2024/03/01 17:03:02;;;;;;;0.70;0.60;;;10.30;99.90;;;;;;4950465;29;20179;-63
2024/03/01 17:05:43;;;;;;;0.40;0.40;;;10.30;99.90;;;;;;4955678;29;20459;-63
2024/03/01 17:08:32;;;;;;;2.10;0.68;;;10.20;99.90;;;;;;4956120;28;20791;-63
2024/03/01 17:10:58;;;;;;;0.80;0.80;;;10.10;99.90;;;;;;4956458;29;20625;-63
2024/03/01 17:13:24;;;;;;;0.30;0.30;;;10.10;99.90;;;;;;4956102;29;20260;-64
2024/03/01 17:15:51;;;;;;;0.50;0.50;;;10.10;99.90;;;;;;4955623;29;20220;-66
2024/03/01 17:18:17;;;;;;;0.63;0.63;;;10.00;99.90;;;;;;4955969;29;20265;-65
2024/03/01 17:20:43;;;;;;;0.30;0.30;;;10.00;99.90;;;;;;4955933;29;20169;-65
2024/03/01 17:23:09;;;;;;;0.30;0.30;;;10.00;99.90;;;;;;4938645;29;20551;-63
2024/03/01 17:25:35;;;;;;;0.30;0.30;;;10.00;99.90;;;;;;4955165;29;20276;-64
2024/03/01 17:28:01;;;;;;;0.30;0.30;;;10.00;99.90;;;;;;4955705;29;20796;-64
2024/03/01 17:30:27;;;;;;;0.40;0.40;;;9.90;99.90;;;;;;4938572;29;20172;-64
2024/03/01 17:32:52;;;;;;;0.60;0.60;;;9.90;99.90;;;;;;4938606;29;20183;-64
2024/03/01 17:35:20;;;;;;;0.30;0.30;;;9.90;99.90;;;;;;4955280;29;20208;-62
2024/03/01 17:37:47;;;;;;;0.30;0.30;;;9.90;99.90;;;;;;4955876;29;20172;-63
2024/03/01 17:40:13;;;;;;;0.30;0.30;;;9.90;99.90;;;;;;4955926;29;20171;-64
2024/03/01 17:42:38;;;;;;;0.32;0.32;;;9.80;99.90;;;;;;4955216;29;20172;-62
2024/03/01 17:45:05;;;;;;;0.33;0.33;;;9.80;99.90;;;;;;4937868;29;20180;-65
2024/03/01 17:47:31;;;;;;;0.40;0.40;;;9.70;99.90;;;;;;4955403;29;20176;-62
2024/03/01 17:49:57;;;;;;;0.30;0.30;;;9.70;99.90;;;;;;4955819;29;20212;-62
2024/03/01 17:52:22;;;;;;;0.40;0.40;;;9.70;99.90;;;;;;4956553;29;20676;-63
2024/03/01 17:54:48;;;;;;;1.00;1.00;;;9.70;99.90;;;;;;4939849;29;20291;-67
2024/03/01 17:57:13;;;;;;;2.30;1.40;;;9.70;99.90;;;;;;4956744;29;20256;-67
2024/03/01 17:59:39;;;;;;;1.57;0.53;;;9.60;99.90;;;;;;4952718;28;20173;-64
2024/03/01 18:02:06;;;;;;;1.90;1.40;;;9.60;99.90;;;;;;4931040;29;20232;-63
2024/03/01 18:04:31;;;;;;;1.02;0.50;;;9.60;99.90;;;;;;4944097;29;20181;-63
2024/03/01 18:07:00;;;;;;;0.30;0.30;;;9.60;99.90;;;;;;4945376;29;20630;-63
2024/03/01 18:09:29;;;;;;;0.30;0.30;;;9.50;99.90;;;;;;4943893;29;20265;-64
2024/03/01 18:11:55;;;;;;;0.30;0.30;;;9.50;99.90;;;;;;4942218;29;20209;-63
2024/03/01 18:14:21;;;;;;;0.57;0.57;;;9.50;99.90;;;;;;4936382;29;20197;-63
2024/03/01 18:16:46;;;;;;;0.30;0.30;;;9.50;99.90;;;;;;4935616;29;20289;-63
2024/03/01 18:19:15;;;;;;;1.07;0.73;;;9.60;99.90;;;;;;4936172;29;20206;-63
2024/03/01 18:21:42;;;;;;;0.30;0.20;;;9.50;99.90;;;;;;4937212;29;20178;-63
2024/03/01 18:24:08;;;;;;;0.30;0.30;;;9.60;99.90;;;;;;4940350;29;20513;-63
2024/03/01 18:26:34;;;;;;;0.30;0.30;;;9.50;99.90;;;;;;4936478;29;20204;-63